sensor_id;sensor_type;location;lat;lon;timestamp;temperature;humidity
47576;DHT22;33304;52.456;13.328;2024-02-23T00:01:05;10.70;99.90
47576;DHT22;33304;52.456;13.328;2024-02-23T00:03:33;10.60;99.90
47576;DHT22;33304;52.456;13.328;2024-02-23T00:06:02;10.60;99.90
47576;DHT22;33304;52.456;13.328;2024-02-23T00:08:29;10.70;99.90
47576;DHT22;33304;52.456;13.328;2024-02-23T00:10:57;10.80;99.90
47576;DHT22;33304;52.456;13.328;2024-02-23T00:13:24;10.80;99.90
47576;DHT22;33304;52.456;13.328;2024-02-23T00:15:52;10.80;99.90
47576;DHT22;33304;52.456;13.328;2024-02-23T00:18:19;10.80;99.90
47576;DHT22;33304;52.456;13.328;2024-02-23T00:20:46;10.80;99.90
47576;DHT22;33304;52.456;13.328;2024-02-23T00:23:13;10.80;99.90
47576;DHT22;33304;52.456;13.328;2024-02-23T00:25:40;10.90;99.90
47576;DHT22;33304;52.456;13.328;2024-02-23T00:28:09;10.90;99.90
47576;DHT22;33304;52.456;13.328;2024-02-23T00:30:36;10.90;99.90
47576;DHT22;33304;52.456;13.328;2024-02-23T00:33:03;10.90;99.90
47576;DHT22;33304;52.456;13.328;2024-02-23T00:35:30;10.90;99.90
47576;DHT22;33304;52.456;13.328;2024-02-23T00:37:58;10.90;99.90
47576;DHT22;33304;52.456;13.328;2024-02-23T00:40:25;10.80;99.90
47576;DHT22;33304;52.456;13.328;2024-02-23T00:42:52;10.80;99.90
47576;DHT22;33304;52.456;13.328;2024-02-23T00:45:21;10.80;99.90
47576;DHT22;33304;52.456;13.328;2024-02-23T00:47:48;10.80;99.90
47576;DHT22;33304;52.456;13.328;2024-02-23T00:50:15;10.80;99.00
47576;DHT22;33304;52.456;13.328;2024-02-23T00:52:42;10.90;98.20
47576;DHT22;33304;52.456;13.328;2024-02-23T00:55:09;10.90;97.60
47576;DHT22;33304;52.456;13.328;2024-02-23T00:57:38;11.00;92.60
47576;DHT22;33304;52.456;13.328;2024-02-23T01:00:06;11.00;92.10
47576;DHT22;33304;52.456;13.328;2024-02-23T01:02:36;11.10;90.50
47576;DHT22;33304;52.456;13.328;2024-02-23T01:05:05;11.10;82.10
47576;DHT22;33304;52.456;13.328;2024-02-23T01:07:32;11.10;81.00
47576;DHT22;33304;52.456;13.328;2024-02-23T01:09:59;11.10;77.80
47576;DHT22;33304;52.456;13.328;2024-02-23T01:12:27;11.10;77.00
47576;DHT22;33304;52.456;13.328;2024-02-23T01:14:54;11.20;71.30
47576;DHT22;33304;52.456;13.328;2024-02-23T01:17:21;11.30;66.60
47576;DHT22;33304;52.456;13.328;2024-02-23T01:19:49;11.30;64.50
47576;DHT22;33304;52.456;13.328;2024-02-23T01:22:17;11.30;63.50
47576;DHT22;33304;52.456;13.328;2024-02-23T01:24:45;11.30;65.70
47576;DHT22;33304;52.456;13.328;2024-02-23T01:27:12;11.30;57.80
47576;DHT22;33304;52.456;13.328;2024-02-23T01:29:39;11.30;56.70
47576;DHT22;33304;52.456;13.328;2024-02-23T01:32:06;11.30;56.20
47576;DHT22;33304;52.456;13.328;2024-02-23T01:34:33;11.30;53.70
47576;DHT22;33304;52.456;13.328;2024-02-23T01:37:02;11.40;50.30
47576;DHT22;33304;52.456;13.328;2024-02-23T01:39:30;11.40;50.10
47576;DHT22;33304;52.456;13.328;2024-02-23T01:41:57;11.50;44.60
47576;DHT22;33304;52.456;13.328;2024-02-23T01:44:24;11.50;44.60
47576;DHT22;33304;52.456;13.328;2024-02-23T01:46:51;11.50;38.80
47576;DHT22;33304;52.456;13.328;2024-02-23T01:49:20;11.60;33.00
47576;DHT22;33304;52.456;13.328;2024-02-23T01:51:48;11.80;31.50
47576;DHT22;33304;52.456;13.328;2024-02-23T01:54:16;11.70;32.10
47576;DHT22;33304;52.456;13.328;2024-02-23T01:56:44;11.70;30.90
47576;DHT22;33304;52.456;13.328;2024-02-23T01:59:12;11.60;30.80
47576;DHT22;33304;52.456;13.328;2024-02-23T02:01:43;11.60;30.90
47576;DHT22;33304;52.456;13.328;2024-02-23T02:04:10;11.60;31.30
47576;DHT22;33304;52.456;13.328;2024-02-23T02:06:37;11.60;28.50
47576;DHT22;33304;52.456;13.328;2024-02-23T02:09:05;11.60;24.30
47576;DHT22;33304;52.456;13.328;2024-02-23T02:11:33;11.60;20.30
47576;DHT22;33304;52.456;13.328;2024-02-23T02:14:00;11.50;18.60
47576;DHT22;33304;52.456;13.328;2024-02-23T02:16:27;11.50;16.70
47576;DHT22;33304;52.456;13.328;2024-02-23T02:18:54;11.40;13.30
47576;DHT22;33304;52.456;13.328;2024-02-23T02:21:21;11.40;13.30
47576;DHT22;33304;52.456;13.328;2024-02-23T02:23:51;11.20;13.20
47576;DHT22;33304;52.456;13.328;2024-02-23T02:26:18;11.20;10.70
47576;DHT22;33304;52.456;13.328;2024-02-23T02:28:46;11.20;8.60
47576;DHT22;33304;52.456;13.328;2024-02-23T02:31:13;11.00;7.40
47576;DHT22;33304;52.456;13.328;2024-02-23T02:33:40;11.00;6.10
47576;DHT22;33304;52.456;13.328;2024-02-23T02:36:07;10.90;6.70
47576;DHT22;33304;52.456;13.328;2024-02-23T02:38:34;10.90;4.30
47576;DHT22;33304;52.456;13.328;2024-02-23T02:41:02;10.90;3.60
47576;DHT22;33304;52.456;13.328;2024-02-23T02:43:29;10.90;3.90
47576;DHT22;33304;52.456;13.328;2024-02-23T02:45:58;10.80;4.70
47576;DHT22;33304;52.456;13.328;2024-02-23T02:48:25;10.70;4.20
47576;DHT22;33304;52.456;13.328;2024-02-23T02:50:52;10.70;4.30
47576;DHT22;33304;52.456;13.328;2024-02-23T02:53:19;10.60;4.50
47576;DHT22;33304;52.456;13.328;2024-02-23T02:55:46;10.50;4.60
47576;DHT22;33304;52.456;13.328;2024-02-23T02:58:14;10.60;4.70
47576;DHT22;33304;52.456;13.328;2024-02-23T03:00:41;10.60;4.30
47576;DHT22;33304;52.456;13.328;2024-02-23T03:03:10;10.50;4.10
47576;DHT22;33304;52.456;13.328;2024-02-23T03:05:38;10.50;2.80
47576;DHT22;33304;52.456;13.328;2024-02-23T03:08:06;10.50;2.70
47576;DHT22;33304;52.456;13.328;2024-02-23T03:10:33;10.40;2.70
47576;DHT22;33304;52.456;13.328;2024-02-23T03:13:00;10.40;2.80
47576;DHT22;33304;52.456;13.328;2024-02-23T03:15:27;10.30;3.40
47576;DHT22;33304;52.456;13.328;2024-02-23T03:17:55;10.40;2.60
47576;DHT22;33304;52.456;13.328;2024-02-23T03:20:24;10.30;2.50
47576;DHT22;33304;52.456;13.328;2024-02-23T03:22:51;10.30;2.50
47576;DHT22;33304;52.456;13.328;2024-02-23T03:25:18;10.20;2.50
47576;DHT22;33304;52.456;13.328;2024-02-23T03:27:47;10.20;2.50
47576;DHT22;33304;52.456;13.328;2024-02-23T03:30:15;10.20;2.70
47576;DHT22;33304;52.456;13.328;2024-02-23T03:32:42;10.10;2.40
47576;DHT22;33304;52.456;13.328;2024-02-23T03:35:09;10.10;2.40
47576;DHT22;33304;52.456;13.328;2024-02-23T03:37:37;10.10;2.40
47576;DHT22;33304;52.456;13.328;2024-02-23T03:40:05;10.10;2.40
47576;DHT22;33304;52.456;13.328;2024-02-23T03:42:33;10.10;2.40
47576;DHT22;33304;52.456;13.328;2024-02-23T03:45:00;10.00;2.30
47576;DHT22;33304;52.456;13.328;2024-02-23T03:47:27;10.10;2.40
47576;DHT22;33304;52.456;13.328;2024-02-23T03:49:54;10.00;2.30
47576;DHT22;33304;52.456;13.328;2024-02-23T03:52:21;9.90;3.00
47576;DHT22;33304;52.456;13.328;2024-02-23T03:54:49;9.90;3.00
47576;DHT22;33304;52.456;13.328;2024-02-23T03:57:17;9.90;3.00
47576;DHT22;33304;52.456;13.328;2024-02-23T03:59:51;10.00;2.30
47576;DHT22;33304;52.456;13.328;2024-02-23T04:02:19;9.90;3.10
47576;DHT22;33304;52.456;13.328;2024-02-23T04:04:47;10.00;2.30
47576;DHT22;33304;52.456;13.328;2024-02-23T04:07:14;9.80;3.00
47576;DHT22;33304;52.456;13.328;2024-02-23T04:09:41;9.80;4.30
47576;DHT22;33304;52.456;13.328;2024-02-23T04:12:09;9.90;3.70
47576;DHT22;33304;52.456;13.328;2024-02-23T04:14:36;9.80;4.20
47576;DHT22;33304;52.456;13.328;2024-02-23T04:17:03;9.70;4.90
47576;DHT22;33304;52.456;13.328;2024-02-23T04:19:30;9.80;3.30
47576;DHT22;33304;52.456;13.328;2024-02-23T04:21:57;9.80;3.00
47576;DHT22;33304;52.456;13.328;2024-02-23T04:24:24;9.80;4.00
47576;DHT22;33304;52.456;13.328;2024-02-23T04:26:52;9.70;4.70
47576;DHT22;33304;52.456;13.328;2024-02-23T04:29:20;9.70;3.90
47576;DHT22;33304;52.456;13.328;2024-02-23T04:31:47;9.70;4.60
47576;DHT22;33304;52.456;13.328;2024-02-23T04:34:15;9.60;3.90
47576;DHT22;33304;52.456;13.328;2024-02-23T04:36:42;9.60;4.30
47576;DHT22;33304;52.456;13.328;2024-02-23T04:39:09;9.60;3.00
47576;DHT22;33304;52.456;13.328;2024-02-23T04:41:36;9.60;2.90
47576;DHT22;33304;52.456;13.328;2024-02-23T04:44:03;9.60;2.80
47576;DHT22;33304;52.456;13.328;2024-02-23T04:46:32;9.60;2.80
47576;DHT22;33304;52.456;13.328;2024-02-23T04:49:00;9.60;2.80
47576;DHT22;33304;52.456;13.328;2024-02-23T04:51:27;9.60;2.80
47576;DHT22;33304;52.456;13.328;2024-02-23T04:53:54;9.50;2.70
47576;DHT22;33304;52.456;13.328;2024-02-23T04:56:21;9.60;1.80
47576;DHT22;33304;52.456;13.328;2024-02-23T04:58:48;9.50;1.80
47576;DHT22;33304;52.456;13.328;2024-02-23T05:01:15;9.40;2.70
47576;DHT22;33304;52.456;13.328;2024-02-23T05:03:44;9.40;2.70
47576;DHT22;33304;52.456;13.328;2024-02-23T05:06:11;9.40;1.50
47576;DHT22;33304;52.456;13.328;2024-02-23T05:08:38;9.40;2.50
47576;DHT22;33304;52.456;13.328;2024-02-23T05:11:05;9.40;1.30
47576;DHT22;33304;52.456;13.328;2024-02-23T05:13:32;9.40;2.20
47576;DHT22;33304;52.456;13.328;2024-02-23T05:15:59;9.30;1.70
47576;DHT22;33304;52.456;13.328;2024-02-23T05:18:26;9.30;2.50
47576;DHT22;33304;52.456;13.328;2024-02-23T05:20:55;9.20;2.50
47576;DHT22;33304;52.456;13.328;2024-02-23T05:23:22;9.20;2.50
47576;DHT22;33304;52.456;13.328;2024-02-23T05:25:49;9.10;1.00
47576;DHT22;33304;52.456;13.328;2024-02-23T05:28:16;9.00;1.00
47576;DHT22;33304;52.456;13.328;2024-02-23T05:30:43;8.90;1.00
47576;DHT22;33304;52.456;13.328;2024-02-23T05:33:10;8.80;1.60
47576;DHT22;33304;52.456;13.328;2024-02-23T05:35:37;8.80;2.30
47576;DHT22;33304;52.456;13.328;2024-02-23T05:38:05;8.70;2.20
47576;DHT22;33304;52.456;13.328;2024-02-23T05:40:32;8.60;2.10
47576;DHT22;33304;52.456;13.328;2024-02-23T05:42:59;8.60;2.10
47576;DHT22;33304;52.456;13.328;2024-02-23T05:45:27;8.50;2.10
47576;DHT22;33304;52.456;13.328;2024-02-23T05:47:54;8.50;2.10
47576;DHT22;33304;52.456;13.328;2024-02-23T05:50:21;8.50;2.00
47576;DHT22;33304;52.456;13.328;2024-02-23T05:52:48;8.40;2.00
47576;DHT22;33304;52.456;13.328;2024-02-23T05:55:17;8.40;2.00
47576;DHT22;33304;52.456;13.328;2024-02-23T05:57:44;8.40;2.00
47576;DHT22;33304;52.456;13.328;2024-02-23T06:00:11;8.20;1.90
47576;DHT22;33304;52.456;13.328;2024-02-23T06:02:39;8.20;1.90
47576;DHT22;33304;52.456;13.328;2024-02-23T06:05:07;8.20;1.90
47576;DHT22;33304;52.456;13.328;2024-02-23T06:07:34;8.20;1.90
47576;DHT22;33304;52.456;13.328;2024-02-23T06:10:02;8.20;1.90
47576;DHT22;33304;52.456;13.328;2024-02-23T06:12:31;8.20;1.90
47576;DHT22;33304;52.456;13.328;2024-02-23T06:14:58;8.10;1.80
47576;DHT22;33304;52.456;13.328;2024-02-23T06:17:25;8.10;1.80
47576;DHT22;33304;52.456;13.328;2024-02-23T06:19:53;8.10;1.80
47576;DHT22;33304;52.456;13.328;2024-02-23T06:22:23;8.20;1.90
47576;DHT22;33304;52.456;13.328;2024-02-23T06:24:51;8.10;1.90
47576;DHT22;33304;52.456;13.328;2024-02-23T06:27:18;8.10;1.80
47576;DHT22;33304;52.456;13.328;2024-02-23T06:29:47;8.00;1.80
47576;DHT22;33304;52.456;13.328;2024-02-23T06:32:14;8.00;1.70
47576;DHT22;33304;52.456;13.328;2024-02-23T06:34:41;8.00;1.80
47576;DHT22;33304;52.456;13.328;2024-02-23T06:37:08;8.00;1.70
47576;DHT22;33304;52.456;13.328;2024-02-23T06:39:36;8.00;1.70
47576;DHT22;33304;52.456;13.328;2024-02-23T06:42:03;7.90;2.10
47576;DHT22;33304;52.456;13.328;2024-02-23T06:44:30;7.90;2.60
47576;DHT22;33304;52.456;13.328;2024-02-23T06:46:59;7.90;3.00
47576;DHT22;33304;52.456;13.328;2024-02-23T06:49:26;7.90;2.80
47576;DHT22;33304;52.456;13.328;2024-02-23T06:51:53;8.00;1.90
47576;DHT22;33304;52.456;13.328;2024-02-23T06:54:20;8.00;3.00
47576;DHT22;33304;52.456;13.328;2024-02-23T06:56:47;8.00;2.50
47576;DHT22;33304;52.456;13.328;2024-02-23T06:59:14;8.10;3.00
47576;DHT22;33304;52.456;13.328;2024-02-23T07:01:48;8.10;2.80
47576;DHT22;33304;52.456;13.328;2024-02-23T07:04:17;8.10;3.20
47576;DHT22;33304;52.456;13.328;2024-02-23T07:06:44;8.00;4.30
47576;DHT22;33304;52.456;13.328;2024-02-23T07:09:11;8.10;4.80
47576;DHT22;33304;52.456;13.328;2024-02-23T07:11:39;8.10;4.90
47576;DHT22;33304;52.456;13.328;2024-02-23T07:14:09;8.30;5.70
47576;DHT22;33304;52.456;13.328;2024-02-23T07:16:38;8.30;4.30
47576;DHT22;33304;52.456;13.328;2024-02-23T07:19:06;8.30;5.50
47576;DHT22;33304;52.456;13.328;2024-02-23T07:21:35;8.30;4.30
47576;DHT22;33304;52.456;13.328;2024-02-23T07:24:03;8.20;4.20
47576;DHT22;33304;52.456;13.328;2024-02-23T07:26:30;8.20;4.60
47576;DHT22;33304;52.456;13.328;2024-02-23T07:28:57;8.20;4.40
47576;DHT22;33304;52.456;13.328;2024-02-23T07:31:24;8.20;5.20
47576;DHT22;33304;52.456;13.328;2024-02-23T07:33:51;8.20;5.10
47576;DHT22;33304;52.456;13.328;2024-02-23T07:36:18;8.30;4.60
47576;DHT22;33304;52.456;13.328;2024-02-23T07:38:48;8.30;5.40
47576;DHT22;33304;52.456;13.328;2024-02-23T07:41:15;8.20;5.70
47576;DHT22;33304;52.456;13.328;2024-02-23T07:43:43;8.20;5.00
47576;DHT22;33304;52.456;13.328;2024-02-23T07:46:11;8.10;5.40
47576;DHT22;33304;52.456;13.328;2024-02-23T07:48:38;8.20;6.10
47576;DHT22;33304;52.456;13.328;2024-02-23T07:51:06;8.20;6.40
47576;DHT22;33304;52.456;13.328;2024-02-23T07:53:33;8.30;7.00
47576;DHT22;33304;52.456;13.328;2024-02-23T07:56:01;8.30;6.20
47576;DHT22;33304;52.456;13.328;2024-02-23T07:58:29;8.30;6.20
47576;DHT22;33304;52.456;13.328;2024-02-23T08:00:56;8.20;5.90
47576;DHT22;33304;52.456;13.328;2024-02-23T08:03:23;8.20;5.70
47576;DHT22;33304;52.456;13.328;2024-02-23T08:05:52;8.10;6.90
47576;DHT22;33304;52.456;13.328;2024-02-23T08:08:19;8.20;7.90
47576;DHT22;33304;52.456;13.328;2024-02-23T08:10:48;8.20;7.10
47576;DHT22;33304;52.456;13.328;2024-02-23T08:13:16;8.40;6.60
47576;DHT22;33304;52.456;13.328;2024-02-23T08:15:44;8.40;6.40
47576;DHT22;33304;52.456;13.328;2024-02-23T08:18:11;8.40;6.20
47576;DHT22;33304;52.456;13.328;2024-02-23T08:20:38;8.50;6.40
47576;DHT22;33304;52.456;13.328;2024-02-23T08:23:05;8.50;6.20
47576;DHT22;33304;52.456;13.328;2024-02-23T08:25:32;8.70;6.40
47576;DHT22;33304;52.456;13.328;2024-02-23T08:27:59;8.80;5.00
47576;DHT22;33304;52.456;13.328;2024-02-23T08:30:28;8.80;5.10
47576;DHT22;33304;52.456;13.328;2024-02-23T08:32:55;8.80;4.50
47576;DHT22;33304;52.456;13.328;2024-02-23T08:35:22;8.70;4.70
47576;DHT22;33304;52.456;13.328;2024-02-23T08:37:49;8.70;3.40
47576;DHT22;33304;52.456;13.328;2024-02-23T08:40:16;8.70;2.90
47576;DHT22;33304;52.456;13.328;2024-02-23T08:42:43;8.50;4.30
47576;DHT22;33304;52.456;13.328;2024-02-23T08:45:10;8.60;3.80
47576;DHT22;33304;52.456;13.328;2024-02-23T08:47:41;8.70;4.40
47576;DHT22;33304;52.456;13.328;2024-02-23T08:50:08;8.60;2.50
47576;DHT22;33304;52.456;13.328;2024-02-23T08:52:36;8.70;3.20
47576;DHT22;33304;52.456;13.328;2024-02-23T08:55:03;8.70;2.30
47576;DHT22;33304;52.456;13.328;2024-02-23T08:57:30;8.70;3.90
47576;DHT22;33304;52.456;13.328;2024-02-23T08:59:57;8.60;3.00
47576;DHT22;33304;52.456;13.328;2024-02-23T09:02:25;8.60;3.90
47576;DHT22;33304;52.456;13.328;2024-02-23T09:04:53;8.70;2.20
47576;DHT22;33304;52.456;13.328;2024-02-23T09:07:20;8.70;2.80
47576;DHT22;33304;52.456;13.328;2024-02-23T09:09:47;8.90;2.90
47576;DHT22;33304;52.456;13.328;2024-02-23T09:12:15;8.80;2.30
47576;DHT22;33304;52.456;13.328;2024-02-23T09:14:43;8.80;2.30
47576;DHT22;33304;52.456;13.328;2024-02-23T09:17:10;9.00;2.90
47576;DHT22;33304;52.456;13.328;2024-02-23T09:19:38;8.80;2.30
47576;DHT22;33304;52.456;13.328;2024-02-23T09:22:07;9.00;2.40
47576;DHT22;33304;52.456;13.328;2024-02-23T09:24:34;9.10;2.50
47576;DHT22;33304;52.456;13.328;2024-02-23T09:27:01;9.40;2.70
47576;DHT22;33304;52.456;13.328;2024-02-23T09:29:29;9.30;1.40
47576;DHT22;33304;52.456;13.328;2024-02-23T09:31:56;9.40;1.10
47576;DHT22;33304;52.456;13.328;2024-02-23T09:34:23;9.40;1.00
47576;DHT22;33304;52.456;13.328;2024-02-23T09:36:50;9.20;1.90
47576;DHT22;33304;52.456;13.328;2024-02-23T09:39:19;9.20;1.10
47576;DHT22;33304;52.456;13.328;2024-02-23T09:41:50;9.10;1.00
47576;DHT22;33304;52.456;13.328;2024-02-23T09:44:18;9.00;1.00
47576;DHT22;33304;52.456;13.328;2024-02-23T09:46:46;9.00;1.00
47576;DHT22;33304;52.456;13.328;2024-02-23T09:49:15;9.10;1.00
47576;DHT22;33304;52.456;13.328;2024-02-23T09:51:42;9.10;1.00
47576;DHT22;33304;52.456;13.328;2024-02-23T09:54:10;9.00;1.00
47576;DHT22;33304;52.456;13.328;2024-02-23T09:56:39;9.00;1.00
47576;DHT22;33304;52.456;13.328;2024-02-23T09:59:06;9.10;1.00
47576;DHT22;33304;52.456;13.328;2024-02-23T10:01:33;9.20;1.80
47576;DHT22;33304;52.456;13.328;2024-02-23T10:04:02;9.30;2.60
47576;DHT22;33304;52.456;13.328;2024-02-23T10:06:30;9.20;2.60
47576;DHT22;33304;52.456;13.328;2024-02-23T10:08:57;9.20;2.50
47576;DHT22;33304;52.456;13.328;2024-02-23T10:11:24;9.30;2.80
47576;DHT22;33304;52.456;13.328;2024-02-23T10:13:54;9.60;2.80
47576;DHT22;33304;52.456;13.328;2024-02-23T10:16:22;9.50;2.70
47576;DHT22;33304;52.456;13.328;2024-02-23T10:18:49;9.40;2.70
47576;DHT22;33304;52.456;13.328;2024-02-23T10:21:17;9.40;2.70
47576;DHT22;33304;52.456;13.328;2024-02-23T10:23:44;9.50;2.70
47576;DHT22;33304;52.456;13.328;2024-02-23T10:26:12;9.40;2.70
47576;DHT22;33304;52.456;13.328;2024-02-23T10:28:39;9.50;2.70
47576;DHT22;33304;52.456;13.328;2024-02-23T10:31:07;9.60;1.00
47576;DHT22;33304;52.456;13.328;2024-02-23T10:33:34;9.60;1.00
47576;DHT22;33304;52.456;13.328;2024-02-23T10:36:05;9.50;1.00
47576;DHT22;33304;52.456;13.328;2024-02-23T10:38:35;9.70;1.00
47576;DHT22;33304;52.456;13.328;2024-02-23T10:41:05;9.60;1.00
47576;DHT22;33304;52.456;13.328;2024-02-23T10:43:38;9.70;1.00
47576;DHT22;33304;52.456;13.328;2024-02-23T10:46:09;9.80;1.00
47576;DHT22;33304;52.456;13.328;2024-02-23T10:48:39;9.50;1.00
47576;DHT22;33304;52.456;13.328;2024-02-23T10:51:07;9.50;1.00
47576;DHT22;33304;52.456;13.328;2024-02-23T10:53:36;9.60;1.00
47576;DHT22;33304;52.456;13.328;2024-02-23T10:56:04;9.40;1.00
47576;DHT22;33304;52.456;13.328;2024-02-23T10:58:32;9.60;1.00
47576;DHT22;33304;52.456;13.328;2024-02-23T11:01:00;9.50;1.00
47576;DHT22;33304;52.456;13.328;2024-02-23T11:03:30;9.70;1.00
47576;DHT22;33304;52.456;13.328;2024-02-23T11:05:59;9.70;1.00
47576;DHT22;33304;52.456;13.328;2024-02-23T11:08:28;9.90;1.00
47576;DHT22;33304;52.456;13.328;2024-02-23T11:10:55;9.60;1.00
47576;DHT22;33304;52.456;13.328;2024-02-23T11:13:30;9.60;1.00
47576;DHT22;33304;52.456;13.328;2024-02-23T11:16:01;9.80;1.00
47576;DHT22;33304;52.456;13.328;2024-02-23T11:18:30;9.90;1.00
47576;DHT22;33304;52.456;13.328;2024-02-23T11:21:00;10.10;1.00
47576;DHT22;33304;52.456;13.328;2024-02-23T11:23:38;9.90;1.00
47576;DHT22;33304;52.456;13.328;2024-02-23T11:26:05;9.70;1.00
47576;DHT22;33304;52.456;13.328;2024-02-23T11:28:42;10.10;1.00
47576;DHT22;33304;52.456;13.328;2024-02-23T11:31:13;10.10;1.00
47576;DHT22;33304;52.456;13.328;2024-02-23T11:33:47;9.90;1.00
47576;DHT22;33304;52.456;13.328;2024-02-23T11:36:22;10.30;1.00
47576;DHT22;33304;52.456;13.328;2024-02-23T11:38:52;9.90;1.00
47576;DHT22;33304;52.456;13.328;2024-02-23T11:41:21;10.10;1.00
47576;DHT22;33304;52.456;13.328;2024-02-23T11:43:49;10.00;1.00
47576;DHT22;33304;52.456;13.328;2024-02-23T11:46:17;10.00;1.00
47576;DHT22;33304;52.456;13.328;2024-02-23T11:48:45;10.20;1.00
47576;DHT22;33304;52.456;13.328;2024-02-23T11:51:13;10.50;1.00
47576;DHT22;33304;52.456;13.328;2024-02-23T11:53:40;10.70;1.00
47576;DHT22;33304;52.456;13.328;2024-02-23T11:56:07;10.60;1.00
47576;DHT22;33304;52.456;13.328;2024-02-23T11:58:34;10.20;1.00
47576;DHT22;33304;52.456;13.328;2024-02-23T12:01:02;10.20;1.00
47576;DHT22;33304;52.456;13.328;2024-02-23T12:03:29;10.30;1.00
47576;DHT22;33304;52.456;13.328;2024-02-23T12:05:59;10.40;1.00
47576;DHT22;33304;52.456;13.328;2024-02-23T12:08:27;10.40;1.00
47576;DHT22;33304;52.456;13.328;2024-02-23T12:10:54;10.30;1.00
47576;DHT22;33304;52.456;13.328;2024-02-23T12:13:22;10.30;1.00
47576;DHT22;33304;52.456;13.328;2024-02-23T12:15:53;10.30;1.00
47576;DHT22;33304;52.456;13.328;2024-02-23T12:18:21;9.90;1.00
47576;DHT22;33304;52.456;13.328;2024-02-23T12:20:49;10.00;1.00
47576;DHT22;33304;52.456;13.328;2024-02-23T12:23:18;10.00;1.00
47576;DHT22;33304;52.456;13.328;2024-02-23T12:25:52;10.10;1.00
47576;DHT22;33304;52.456;13.328;2024-02-23T12:28:19;10.20;1.00
47576;DHT22;33304;52.456;13.328;2024-02-23T12:30:57;10.00;1.00
47576;DHT22;33304;52.456;13.328;2024-02-23T12:33:24;10.20;1.00
47576;DHT22;33304;52.456;13.328;2024-02-23T12:35:54;10.00;1.00
47576;DHT22;33304;52.456;13.328;2024-02-23T12:38:22;10.00;1.00
47576;DHT22;33304;52.456;13.328;2024-02-23T12:40:50;9.90;1.00
47576;DHT22;33304;52.456;13.328;2024-02-23T12:43:17;9.90;1.00
47576;DHT22;33304;52.456;13.328;2024-02-23T12:45:47;9.90;1.00
47576;DHT22;33304;52.456;13.328;2024-02-23T12:48:16;10.20;1.00
47576;DHT22;33304;52.456;13.328;2024-02-23T12:50:43;10.30;1.00
47576;DHT22;33304;52.456;13.328;2024-02-23T12:53:31;9.90;1.00
47576;DHT22;33304;52.456;13.328;2024-02-23T12:56:00;9.90;1.00
47576;DHT22;33304;52.456;13.328;2024-02-23T12:58:27;10.10;1.00
47576;DHT22;33304;52.456;13.328;2024-02-23T13:00:55;10.00;1.00
47576;DHT22;33304;52.456;13.328;2024-02-23T13:03:23;10.00;1.00
47576;DHT22;33304;52.456;13.328;2024-02-23T13:05:51;9.90;1.00
47576;DHT22;33304;52.456;13.328;2024-02-23T13:08:18;10.10;1.00
47576;DHT22;33304;52.456;13.328;2024-02-23T13:10:46;9.80;1.00
47576;DHT22;33304;52.456;13.328;2024-02-23T13:13:13;9.70;1.00
47576;DHT22;33304;52.456;13.328;2024-02-23T13:15:41;9.70;1.00
47576;DHT22;33304;52.456;13.328;2024-02-23T13:18:08;9.70;1.00
47576;DHT22;33304;52.456;13.328;2024-02-23T13:20:36;9.70;1.00
47576;DHT22;33304;52.456;13.328;2024-02-23T13:23:03;10.00;1.00
47576;DHT22;33304;52.456;13.328;2024-02-23T13:25:31;9.90;1.00
47576;DHT22;33304;52.456;13.328;2024-02-23T13:27:59;10.10;1.00
47576;DHT22;33304;52.456;13.328;2024-02-23T13:30:26;9.80;1.00
47576;DHT22;33304;52.456;13.328;2024-02-23T13:32:53;10.00;1.00
47576;DHT22;33304;52.456;13.328;2024-02-23T13:35:21;10.10;1.00
47576;DHT22;33304;52.456;13.328;2024-02-23T13:37:48;10.00;1.00
47576;DHT22;33304;52.456;13.328;2024-02-23T13:40:15;10.00;1.00
47576;DHT22;33304;52.456;13.328;2024-02-23T13:42:42;9.50;1.00
47576;DHT22;33304;52.456;13.328;2024-02-23T13:45:13;9.60;1.00
47576;DHT22;33304;52.456;13.328;2024-02-23T13:47:40;9.70;1.00
47576;DHT22;33304;52.456;13.328;2024-02-23T13:50:08;9.50;1.00
47576;DHT22;33304;52.456;13.328;2024-02-23T13:52:35;9.70;1.00
47576;DHT22;33304;52.456;13.328;2024-02-23T13:55:02;9.80;1.00
47576;DHT22;33304;52.456;13.328;2024-02-23T13:57:29;9.70;1.00
47576;DHT22;33304;52.456;13.328;2024-02-23T13:59:56;9.80;1.00
47576;DHT22;33304;52.456;13.328;2024-02-23T14:02:26;9.60;1.00
47576;DHT22;33304;52.456;13.328;2024-02-23T14:05:00;9.70;1.00
47576;DHT22;33304;52.456;13.328;2024-02-23T14:07:28;9.70;1.00
47576;DHT22;33304;52.456;13.328;2024-02-23T14:09:55;9.80;1.00
47576;DHT22;33304;52.456;13.328;2024-02-23T14:12:23;9.80;1.00
47576;DHT22;33304;52.456;13.328;2024-02-23T14:14:50;9.70;1.00
47576;DHT22;33304;52.456;13.328;2024-02-23T14:17:17;9.80;1.00
47576;DHT22;33304;52.456;13.328;2024-02-23T14:19:45;9.60;1.00
47576;DHT22;33304;52.456;13.328;2024-02-23T14:22:12;9.60;1.00
47576;DHT22;33304;52.456;13.328;2024-02-23T14:24:39;9.70;1.00
47576;DHT22;33304;52.456;13.328;2024-02-23T14:27:07;9.40;1.00
47576;DHT22;33304;52.456;13.328;2024-02-23T14:29:34;9.40;1.00
47576;DHT22;33304;52.456;13.328;2024-02-23T14:32:01;9.50;1.00
47576;DHT22;33304;52.456;13.328;2024-02-23T14:34:29;9.50;1.00
47576;DHT22;33304;52.456;13.328;2024-02-23T14:37:00;9.50;1.00
47576;DHT22;33304;52.456;13.328;2024-02-23T14:39:27;9.50;1.00
47576;DHT22;33304;52.456;13.328;2024-02-23T14:41:54;9.60;1.00
47576;DHT22;33304;52.456;13.328;2024-02-23T14:44:22;9.30;1.00
47576;DHT22;33304;52.456;13.328;2024-02-23T14:46:49;9.20;1.00
47576;DHT22;33304;52.456;13.328;2024-02-23T14:49:16;9.10;1.00
47576;DHT22;33304;52.456;13.328;2024-02-23T14:51:43;9.10;1.00
47576;DHT22;33304;52.456;13.328;2024-02-23T14:54:13;9.20;1.00
47576;DHT22;33304;52.456;13.328;2024-02-23T14:56:40;9.20;1.00
47576;DHT22;33304;52.456;13.328;2024-02-23T14:59:07;9.10;1.00
47576;DHT22;33304;52.456;13.328;2024-02-23T15:01:36;9.30;1.00
47576;DHT22;33304;52.456;13.328;2024-02-23T15:04:04;9.10;1.00
47576;DHT22;33304;52.456;13.328;2024-02-23T15:06:31;9.20;1.00
47576;DHT22;33304;52.456;13.328;2024-02-23T15:08:58;9.20;1.00
47576;DHT22;33304;52.456;13.328;2024-02-23T15:11:27;9.20;1.00
47576;DHT22;33304;52.456;13.328;2024-02-23T15:13:55;9.20;1.00
47576;DHT22;33304;52.456;13.328;2024-02-23T15:16:24;9.20;1.00
47576;DHT22;33304;52.456;13.328;2024-02-23T15:18:51;9.20;1.00
47576;DHT22;33304;52.456;13.328;2024-02-23T15:21:18;9.20;1.00
47576;DHT22;33304;52.456;13.328;2024-02-23T15:23:45;9.10;1.00
47576;DHT22;33304;52.456;13.328;2024-02-23T15:26:12;9.30;1.00
47576;DHT22;33304;52.456;13.328;2024-02-23T15:28:41;9.10;1.00
47576;DHT22;33304;52.456;13.328;2024-02-23T15:31:08;9.20;1.00
47576;DHT22;33304;52.456;13.328;2024-02-23T15:33:35;9.30;1.00
47576;DHT22;33304;52.456;13.328;2024-02-23T15:36:05;9.20;1.00
47576;DHT22;33304;52.456;13.328;2024-02-23T15:38:34;9.20;1.00
47576;DHT22;33304;52.456;13.328;2024-02-23T15:41:01;9.00;1.00